sensor_id;sensor_type;location;lat;lon;timestamp;temperature;humidity
13659;DHT22;6902;52.158;11.574;2022-07-29T00:10:28;16.50;99.90
13659;DHT22;6902;52.158;11.574;2022-07-29T00:12:55;16.40;99.90
13659;DHT22;6902;52.158;11.574;2022-07-29T00:15:22;16.40;99.90
13659;DHT22;6902;52.158;11.574;2022-07-29T00:17:49;16.40;99.90
13659;DHT22;6902;52.158;11.574;2022-07-29T00:20:16;16.40;99.90
13659;DHT22;6902;52.158;11.574;2022-07-29T00:22:43;16.40;99.90
13659;DHT22;6902;52.158;11.574;2022-07-29T00:25:12;16.40;99.90
13659;DHT22;6902;52.158;11.574;2022-07-29T00:27:40;16.40;99.90
13659;DHT22;6902;52.158;11.574;2022-07-29T00:30:08;16.30;99.90
13659;DHT22;6902;52.158;11.574;2022-07-29T00:32:34;16.30;99.90
13659;DHT22;6902;52.158;11.574;2022-07-29T00:40:14;16.30;99.90
13659;DHT22;6902;52.158;11.574;2022-07-29T00:42:43;16.20;99.90
13659;DHT22;6902;52.158;11.574;2022-07-29T00:45:11;16.20;99.90
13659;DHT22;6902;52.158;11.574;2022-07-29T00:47:38;16.20;99.90
13659;DHT22;6902;52.158;11.574;2022-07-29T00:50:06;16.10;99.90
13659;DHT22;6902;52.158;11.574;2022-07-29T00:52:36;16.10;99.90
13659;DHT22;6902;52.158;11.574;2022-07-29T00:55:03;16.10;99.90
13659;DHT22;6902;52.158;11.574;2022-07-29T00:57:31;16.00;99.90
13659;DHT22;6902;52.158;11.574;2022-07-29T01:00:00;15.90;99.90
13659;DHT22;6902;52.158;11.574;2022-07-29T01:02:27;15.90;99.90
13659;DHT22;6902;52.158;11.574;2022-07-29T01:04:54;15.80;99.90
13659;DHT22;6902;52.158;11.574;2022-07-29T01:07:23;15.80;99.90
13659;DHT22;6902;52.158;11.574;2022-07-29T01:09:52;15.80;99.90
13659;DHT22;6902;52.158;11.574;2022-07-29T01:12:23;15.70;99.90
13659;DHT22;6902;52.158;11.574;2022-07-29T01:14:52;15.70;99.90
13659;DHT22;6902;52.158;11.574;2022-07-29T01:17:25;15.70;99.90
13659;DHT22;6902;52.158;11.574;2022-07-29T01:19:58;15.60;99.90
13659;DHT22;6902;52.158;11.574;2022-07-29T01:22:35;15.60;99.90
13659;DHT22;6902;52.158;11.574;2022-07-29T01:25:25;15.60;99.90
13659;DHT22;6902;52.158;11.574;2022-07-29T01:28:08;15.60;99.90
13659;DHT22;6902;52.158;11.574;2022-07-29T01:30:42;15.50;99.90
13659;DHT22;6902;52.158;11.574;2022-07-29T01:33:13;15.50;99.90
13659;DHT22;6902;52.158;11.574;2022-07-29T01:36:09;15.50;99.90
13659;DHT22;6902;52.158;11.574;2022-07-29T01:38:38;15.40;99.90
13659;DHT22;6902;52.158;11.574;2022-07-29T01:41:09;15.30;99.90
13659;DHT22;6902;52.158;11.574;2022-07-29T01:43:44;15.30;99.90
13659;DHT22;6902;52.158;11.574;2022-07-29T01:46:15;15.20;99.90
13659;DHT22;6902;52.158;11.574;2022-07-29T01:48:47;15.20;99.90
13659;DHT22;6902;52.158;11.574;2022-07-29T01:51:19;15.20;99.90
13659;DHT22;6902;52.158;11.574;2022-07-29T01:53:50;15.20;99.90
13659;DHT22;6902;52.158;11.574;2022-07-29T01:56:20;15.10;99.90
13659;DHT22;6902;52.158;11.574;2022-07-29T01:58:48;15.00;99.90
13659;DHT22;6902;52.158;11.574;2022-07-29T02:01:18;14.90;99.90
13659;DHT22;6902;52.158;11.574;2022-07-29T02:03:47;15.00;99.90
13659;DHT22;6902;52.158;11.574;2022-07-29T02:06:17;14.90;99.90
13659;DHT22;6902;52.158;11.574;2022-07-29T02:08:46;14.90;99.90
13659;DHT22;6902;52.158;11.574;2022-07-29T02:11:14;14.90;99.90
13659;DHT22;6902;52.158;11.574;2022-07-29T02:13:42;14.80;99.90
13659;DHT22;6902;52.158;11.574;2022-07-29T02:16:10;14.80;99.90
13659;DHT22;6902;52.158;11.574;2022-07-29T02:18:41;14.80;99.90
13659;DHT22;6902;52.158;11.574;2022-07-29T02:21:12;14.80;99.90
13659;DHT22;6902;52.158;11.574;2022-07-29T02:23:43;14.80;99.90
13659;DHT22;6902;52.158;11.574;2022-07-29T02:26:11;14.80;99.90
13659;DHT22;6902;52.158;11.574;2022-07-29T02:28:39;14.80;99.90
13659;DHT22;6902;52.158;11.574;2022-07-29T02:31:07;14.80;99.90
13659;DHT22;6902;52.158;11.574;2022-07-29T02:33:35;14.80;99.90
13659;DHT22;6902;52.158;11.574;2022-07-29T02:36:04;14.80;99.90
13659;DHT22;6902;52.158;11.574;2022-07-29T02:38:32;14.90;99.90
13659;DHT22;6902;52.158;11.574;2022-07-29T02:41:24;14.90;99.90
13659;DHT22;6902;52.158;11.574;2022-07-29T02:43:56;14.90;99.90
13659;DHT22;6902;52.158;11.574;2022-07-29T02:46:29;14.90;99.90
13659;DHT22;6902;52.158;11.574;2022-07-29T02:49:01;14.90;99.90
13659;DHT22;6902;52.158;11.574;2022-07-29T02:51:40;14.90;99.90
13659;DHT22;6902;52.158;11.574;2022-07-29T02:54:09;15.00;99.90
13659;DHT22;6902;52.158;11.574;2022-07-29T02:56:38;15.00;99.90
13659;DHT22;6902;52.158;11.574;2022-07-29T02:59:13;15.00;99.90
13659;DHT22;6902;52.158;11.574;2022-07-29T03:01:42;15.00;99.90
13659;DHT22;6902;52.158;11.574;2022-07-29T03:04:11;15.00;99.90
13659;DHT22;6902;52.158;11.574;2022-07-29T03:06:40;15.00;99.90
13659;DHT22;6902;52.158;11.574;2022-07-29T03:09:07;14.90;99.90
13659;DHT22;6902;52.158;11.574;2022-07-29T03:11:36;14.90;99.90
13659;DHT22;6902;52.158;11.574;2022-07-29T03:14:05;14.80;99.90
13659;DHT22;6902;52.158;11.574;2022-07-29T03:16:33;14.80;99.90
13659;DHT22;6902;52.158;11.574;2022-07-29T03:19:02;14.80;99.90
13659;DHT22;6902;52.158;11.574;2022-07-29T03:21:30;14.80;99.90
13659;DHT22;6902;52.158;11.574;2022-07-29T03:23:58;14.80;99.90
13659;DHT22;6902;52.158;11.574;2022-07-29T03:26:26;14.80;99.90
13659;DHT22;6902;52.158;11.574;2022-07-29T03:28:53;14.80;99.90
13659;DHT22;6902;52.158;11.574;2022-07-29T03:31:20;14.80;99.90
13659;DHT22;6902;52.158;11.574;2022-07-29T03:33:47;14.80;99.90
13659;DHT22;6902;52.158;11.574;2022-07-29T03:36:13;14.80;99.90
13659;DHT22;6902;52.158;11.574;2022-07-29T03:38:42;14.80;99.90
13659;DHT22;6902;52.158;11.574;2022-07-29T03:41:12;14.80;99.90
13659;DHT22;6902;52.158;11.574;2022-07-29T03:43:41;14.90;99.90
13659;DHT22;6902;52.158;11.574;2022-07-29T03:46:10;14.90;99.90
13659;DHT22;6902;52.158;11.574;2022-07-29T03:48:42;14.80;99.90
13659;DHT22;6902;52.158;11.574;2022-07-29T03:51:10;14.80;99.90
13659;DHT22;6902;52.158;11.574;2022-07-29T03:53:37;14.80;99.90
13659;DHT22;6902;52.158;11.574;2022-07-29T03:56:05;14.80;99.90
13659;DHT22;6902;52.158;11.574;2022-07-29T03:58:34;14.80;99.90
13659;DHT22;6902;52.158;11.574;2022-07-29T04:01:02;14.80;99.90
13659;DHT22;6902;52.158;11.574;2022-07-29T04:03:29;14.80;99.90
13659;DHT22;6902;52.158;11.574;2022-07-29T04:06:01;14.90;99.90
13659;DHT22;6902;52.158;11.574;2022-07-29T04:08:28;14.90;99.90
13659;DHT22;6902;52.158;11.574;2022-07-29T04:10:56;14.90;99.90
13659;DHT22;6902;52.158;11.574;2022-07-29T04:13:22;14.90;99.90
13659;DHT22;6902;52.158;11.574;2022-07-29T04:15:51;14.90;99.90
13659;DHT22;6902;52.158;11.574;2022-07-29T04:18:18;14.90;99.90
13659;DHT22;6902;52.158;11.574;2022-07-29T04:20:46;15.00;99.90
13659;DHT22;6902;52.158;11.574;2022-07-29T04:23:14;15.00;99.90
13659;DHT22;6902;52.158;11.574;2022-07-29T04:25:41;15.00;99.90
13659;DHT22;6902;52.158;11.574;2022-07-29T04:28:09;15.00;99.90
13659;DHT22;6902;52.158;11.574;2022-07-29T04:30:37;15.10;99.90
13659;DHT22;6902;52.158;11.574;2022-07-29T04:33:06;15.10;99.90
13659;DHT22;6902;52.158;11.574;2022-07-29T04:35:35;15.10;99.90
13659;DHT22;6902;52.158;11.574;2022-07-29T04:38:03;15.10;99.90
13659;DHT22;6902;52.158;11.574;2022-07-29T04:40:30;15.20;99.90
13659;DHT22;6902;52.158;11.574;2022-07-29T04:42:59;15.20;99.90
13659;DHT22;6902;52.158;11.574;2022-07-29T04:45:26;15.20;99.90
13659;DHT22;6902;52.158;11.574;2022-07-29T04:47:53;15.20;99.90
13659;DHT22;6902;52.158;11.574;2022-07-29T04:50:22;15.20;99.90
13659;DHT22;6902;52.158;11.574;2022-07-29T04:52:49;15.20;99.90
13659;DHT22;6902;52.158;11.574;2022-07-29T04:55:16;15.20;99.90
13659;DHT22;6902;52.158;11.574;2022-07-29T04:57:43;15.20;99.90
13659;DHT22;6902;52.158;11.574;2022-07-29T05:00:11;15.30;99.90
13659;DHT22;6902;52.158;11.574;2022-07-29T05:02:38;15.30;99.90
13659;DHT22;6902;52.158;11.574;2022-07-29T05:05:05;15.40;99.90
13659;DHT22;6902;52.158;11.574;2022-07-29T05:07:34;15.40;99.90
13659;DHT22;6902;52.158;11.574;2022-07-29T05:10:01;15.50;99.90
13659;DHT22;6902;52.158;11.574;2022-07-29T05:12:28;15.60;99.90
13659;DHT22;6902;52.158;11.574;2022-07-29T05:14:55;15.70;99.90
13659;DHT22;6902;52.158;11.574;2022-07-29T05:17:22;15.80;99.90
13659;DHT22;6902;52.158;11.574;2022-07-29T05:19:49;15.80;99.90
13659;DHT22;6902;52.158;11.574;2022-07-29T05:22:17;15.90;99.90
13659;DHT22;6902;52.158;11.574;2022-07-29T05:24:46;16.00;99.90
13659;DHT22;6902;52.158;11.574;2022-07-29T05:31:01;16.10;99.90
13659;DHT22;6902;52.158;11.574;2022-07-29T05:33:29;16.30;99.90
13659;DHT22;6902;52.158;11.574;2022-07-29T05:35:58;16.40;99.90
13659;DHT22;6902;52.158;11.574;2022-07-29T05:38:37;16.50;99.90
13659;DHT22;6902;52.158;11.574;2022-07-29T05:41:07;16.70;99.90
13659;DHT22;6902;52.158;11.574;2022-07-29T05:43:34;16.80;99.90
13659;DHT22;6902;52.158;11.574;2022-07-29T05:46:01;17.10;99.90
13659;DHT22;6902;52.158;11.574;2022-07-29T05:48:28;17.40;99.90
13659;DHT22;6902;52.158;11.574;2022-07-29T05:50:55;17.70;99.90
13659;DHT22;6902;52.158;11.574;2022-07-29T05:53:28;17.90;99.90
13659;DHT22;6902;52.158;11.574;2022-07-29T05:55:55;18.00;99.90
13659;DHT22;6902;52.158;11.574;2022-07-29T05:58:24;18.00;99.90
13659;DHT22;6902;52.158;11.574;2022-07-29T06:00:51;18.00;99.90
13659;DHT22;6902;52.158;11.574;2022-07-29T06:03:18;18.00;99.90
13659;DHT22;6902;52.158;11.574;2022-07-29T06:05:45;18.00;99.90
13659;DHT22;6902;52.158;11.574;2022-07-29T06:08:12;18.00;99.90
13659;DHT22;6902;52.158;11.574;2022-07-29T06:10:39;18.00;99.90
13659;DHT22;6902;52.158;11.574;2022-07-29T06:13:06;18.10;99.90
13659;DHT22;6902;52.158;11.574;2022-07-29T06:15:34;18.20;99.90
13659;DHT22;6902;52.158;11.574;2022-07-29T06:18:01;18.30;99.90
13659;DHT22;6902;52.158;11.574;2022-07-29T06:20:29;18.30;99.90
13659;DHT22;6902;52.158;11.574;2022-07-29T06:22:56;18.30;99.90
13659;DHT22;6902;52.158;11.574;2022-07-29T06:25:23;18.20;99.90
13659;DHT22;6902;52.158;11.574;2022-07-29T06:27:50;18.20;99.90
13659;DHT22;6902;52.158;11.574;2022-07-29T06:30:18;18.40;99.90
13659;DHT22;6902;52.158;11.574;2022-07-29T06:32:46;18.40;99.90
13659;DHT22;6902;52.158;11.574;2022-07-29T06:35:43;18.50;99.90
13659;DHT22;6902;52.158;11.574;2022-07-29T06:38:13;18.50;99.90
13659;DHT22;6902;52.158;11.574;2022-07-29T06:40:44;18.60;99.90
13659;DHT22;6902;52.158;11.574;2022-07-29T06:43:27;18.60;99.90
13659;DHT22;6902;52.158;11.574;2022-07-29T06:45:58;18.60;99.90
13659;DHT22;6902;52.158;11.574;2022-07-29T06:48:26;18.60;99.90
13659;DHT22;6902;52.158;11.574;2022-07-29T06:50:53;18.60;99.90
13659;DHT22;6902;52.158;11.574;2022-07-29T06:53:21;18.70;99.90
13659;DHT22;6902;52.158;11.574;2022-07-29T06:55:48;18.60;99.90
13659;DHT22;6902;52.158;11.574;2022-07-29T06:58:15;18.60;99.90
13659;DHT22;6902;52.158;11.574;2022-07-29T07:00:54;18.70;99.90
13659;DHT22;6902;52.158;11.574;2022-07-29T07:03:24;18.60;99.90
13659;DHT22;6902;52.158;11.574;2022-07-29T07:05:53;18.70;99.90
13659;DHT22;6902;52.158;11.574;2022-07-29T07:08:21;18.80;99.90
13659;DHT22;6902;52.158;11.574;2022-07-29T07:10:49;18.80;99.90
13659;DHT22;6902;52.158;11.574;2022-07-29T07:13:16;18.70;99.90
13659;DHT22;6902;52.158;11.574;2022-07-29T07:15:44;18.70;99.90
13659;DHT22;6902;52.158;11.574;2022-07-29T07:18:13;18.70;99.90
13659;DHT22;6902;52.158;11.574;2022-07-29T07:20:41;18.70;99.90
13659;DHT22;6902;52.158;11.574;2022-07-29T07:23:09;18.80;99.90
13659;DHT22;6902;52.158;11.574;2022-07-29T07:25:36;18.80;99.90
13659;DHT22;6902;52.158;11.574;2022-07-29T07:55:16;19.60;99.90
13659;DHT22;6902;52.158;11.574;2022-07-29T07:57:45;19.90;99.90
13659;DHT22;6902;52.158;11.574;2022-07-29T08:00:14;20.10;99.90
13659;DHT22;6902;52.158;11.574;2022-07-29T08:24:56;20.20;99.90
13659;DHT22;6902;52.158;11.574;2022-07-29T08:29:52;20.30;99.90
13659;DHT22;6902;52.158;11.574;2022-07-29T08:56:58;22.40;99.90
13659;DHT22;6902;52.158;11.574;2022-07-29T08:59:27;22.70;99.90
13659;DHT22;6902;52.158;11.574;2022-07-29T09:01:54;22.90;99.90
13659;DHT22;6902;52.158;11.574;2022-07-29T09:04:29;23.10;99.90
13659;DHT22;6902;52.158;11.574;2022-07-29T09:07:00;23.20;99.90
13659;DHT22;6902;52.158;11.574;2022-07-29T09:09:28;23.30;99.90
13659;DHT22;6902;52.158;11.574;2022-07-29T09:11:55;23.40;99.90
13659;DHT22;6902;52.158;11.574;2022-07-29T09:14:22;23.60;99.90
13659;DHT22;6902;52.158;11.574;2022-07-29T09:16:52;23.70;99.90
13659;DHT22;6902;52.158;11.574;2022-07-29T09:19:21;23.70;99.90
13659;DHT22;6902;52.158;11.574;2022-07-29T09:21:48;23.90;99.90
13659;DHT22;6902;52.158;11.574;2022-07-29T09:24:38;23.90;99.90
13659;DHT22;6902;52.158;11.574;2022-07-29T09:27:19;24.00;99.90
13659;DHT22;6902;52.158;11.574;2022-07-29T09:29:54;24.00;99.90
13659;DHT22;6902;52.158;11.574;2022-07-29T09:32:21;24.20;99.90
13659;DHT22;6902;52.158;11.574;2022-07-29T09:39:54;24.40;99.90
13659;DHT22;6902;52.158;11.574;2022-07-29T09:42:28;24.50;99.90
13659;DHT22;6902;52.158;11.574;2022-07-29T09:44:55;24.90;99.90
13659;DHT22;6902;52.158;11.574;2022-07-29T09:52:45;25.20;99.90
13659;DHT22;6902;52.158;11.574;2022-07-29T09:55:14;25.10;99.90
13659;DHT22;6902;52.158;11.574;2022-07-29T09:57:42;25.30;99.90
13659;DHT22;6902;52.158;11.574;2022-07-29T10:00:11;25.40;99.90
13659;DHT22;6902;52.158;11.574;2022-07-29T10:23:41;26.40;99.90
13659;DHT22;6902;52.158;11.574;2022-07-29T10:26:35;26.30;99.90
13659;DHT22;6902;52.158;11.574;2022-07-29T10:29:05;26.30;99.90
13659;DHT22;6902;52.158;11.574;2022-07-29T10:39:27;26.80;99.90
13659;DHT22;6902;52.158;11.574;2022-07-29T10:42:08;26.90;99.90
13659;DHT22;6902;52.158;11.574;2022-07-29T10:44:40;27.00;99.90
13659;DHT22;6902;52.158;11.574;2022-07-29T10:47:07;27.00;99.90
13659;DHT22;6902;52.158;11.574;2022-07-29T10:49:36;27.10;99.90
13659;DHT22;6902;52.158;11.574;2022-07-29T10:54:46;27.30;99.90
13659;DHT22;6902;52.158;11.574;2022-07-29T10:57:26;27.30;99.90
13659;DHT22;6902;52.158;11.574;2022-07-29T11:00:31;27.40;99.90
13659;DHT22;6902;52.158;11.574;2022-07-29T11:02:58;27.20;99.90
13659;DHT22;6902;52.158;11.574;2022-07-29T11:05:28;27.50;99.90
13659;DHT22;6902;52.158;11.574;2022-07-29T11:08:17;27.70;99.90
13659;DHT22;6902;52.158;11.574;2022-07-29T11:31:07;27.80;99.90
13659;DHT22;6902;52.158;11.574;2022-07-29T11:33:35;28.00;99.90
13659;DHT22;6902;52.158;11.574;2022-07-29T11:36:12;28.00;99.90
13659;DHT22;6902;52.158;11.574;2022-07-29T11:38:40;28.10;99.90
13659;DHT22;6902;52.158;11.574;2022-07-29T11:41:21;28.30;99.90
13659;DHT22;6902;52.158;11.574;2022-07-29T11:43:50;28.50;99.90
13659;DHT22;6902;52.158;11.574;2022-07-29T11:46:43;28.60;99.90
13659;DHT22;6902;52.158;11.574;2022-07-29T11:49:11;28.80;99.90
13659;DHT22;6902;52.158;11.574;2022-07-29T11:51:40;28.90;99.90
13659;DHT22;6902;52.158;11.574;2022-07-29T11:54:48;29.10;99.90
13659;DHT22;6902;52.158;11.574;2022-07-29T11:57:16;29.30;99.90
13659;DHT22;6902;52.158;11.574;2022-07-29T11:59:45;29.20;99.90
13659;DHT22;6902;52.158;11.574;2022-07-29T12:02:14;29.00;99.90
13659;DHT22;6902;52.158;11.574;2022-07-29T12:04:48;28.90;99.90
13659;DHT22;6902;52.158;11.574;2022-07-29T12:07:17;28.70;99.90
13659;DHT22;6902;52.158;11.574;2022-07-29T12:09:49;28.70;99.90
13659;DHT22;6902;52.158;11.574;2022-07-29T12:12:17;28.70;99.90
13659;DHT22;6902;52.158;11.574;2022-07-29T12:14:45;28.60;99.90
13659;DHT22;6902;52.158;11.574;2022-07-29T12:17:25;28.70;99.90
13659;DHT22;6902;52.158;11.574;2022-07-29T12:19:53;28.80;99.90
13659;DHT22;6902;52.158;11.574;2022-07-29T12:22:26;29.00;99.90
13659;DHT22;6902;52.158;11.574;2022-07-29T12:24:54;29.20;99.90
13659;DHT22;6902;52.158;11.574;2022-07-29T12:27:22;29.50;99.90
13659;DHT22;6902;52.158;11.574;2022-07-29T12:29:56;29.50;99.90
13659;DHT22;6902;52.158;11.574;2022-07-29T12:32:23;29.60;99.90
13659;DHT22;6902;52.158;11.574;2022-07-29T12:34:50;29.60;99.90
13659;DHT22;6902;52.158;11.574;2022-07-29T12:37:18;29.50;99.90
13659;DHT22;6902;52.158;11.574;2022-07-29T12:39:46;29.60;99.90
13659;DHT22;6902;52.158;11.574;2022-07-29T12:42:14;29.50;99.90
13659;DHT22;6902;52.158;11.574;2022-07-29T12:44:46;29.40;99.90
13659;DHT22;6902;52.158;11.574;2022-07-29T12:47:13;29.30;99.90
13659;DHT22;6902;52.158;11.574;2022-07-29T12:49:41;29.30;99.90
13659;DHT22;6902;52.158;11.574;2022-07-29T12:52:25;29.30;99.90
13659;DHT22;6902;52.158;11.574;2022-07-29T12:54:54;29.20;99.90
13659;DHT22;6902;52.158;11.574;2022-07-29T12:57:21;29.20;99.90
13659;DHT22;6902;52.158;11.574;2022-07-29T13:00:05;29.10;99.90
13659;DHT22;6902;52.158;11.574;2022-07-29T13:02:33;29.10;99.90
13659;DHT22;6902;52.158;11.574;2022-07-29T13:05:01;28.90;99.90
13659;DHT22;6902;52.158;11.574;2022-07-29T13:07:31;28.80;99.90
13659;DHT22;6902;52.158;11.574;2022-07-29T13:10:14;28.70;99.90
13659;DHT22;6902;52.158;11.574;2022-07-29T13:13:04;28.70;99.90
13659;DHT22;6902;52.158;11.574;2022-07-29T13:15:32;28.70;99.90
13659;DHT22;6902;52.158;11.574;2022-07-29T13:17:59;28.80;99.90
13659;DHT22;6902;52.158;11.574;2022-07-29T13:20:30;28.90;99.90
13659;DHT22;6902;52.158;11.574;2022-07-29T13:22:59;29.00;99.90
13659;DHT22;6902;52.158;11.574;2022-07-29T13:25:30;29.10;99.90
13659;DHT22;6902;52.158;11.574;2022-07-29T13:27:58;29.10;99.90
13659;DHT22;6902;52.158;11.574;2022-07-29T13:30:25;29.10;99.90
13659;DHT22;6902;52.158;11.574;2022-07-29T13:32:52;29.10;99.90
13659;DHT22;6902;52.158;11.574;2022-07-29T13:35:20;29.10;99.90
13659;DHT22;6902;52.158;11.574;2022-07-29T13:37:47;29.10;99.90
13659;DHT22;6902;52.158;11.574;2022-07-29T13:40:15;29.00;99.90
13659;DHT22;6902;52.158;11.574;2022-07-29T13:42:43;28.90;99.90
13659;DHT22;6902;52.158;11.574;2022-07-29T13:45:11;28.90;99.90
13659;DHT22;6902;52.158;11.574;2022-07-29T13:47:38;28.90;99.90
13659;DHT22;6902;52.158;11.574;2022-07-29T13:50:07;29.00;99.90
13659;DHT22;6902;52.158;11.574;2022-07-29T13:52:36;29.00;99.90
13659;DHT22;6902;52.158;11.574;2022-07-29T13:55:05;29.10;99.90
13659;DHT22;6902;52.158;11.574;2022-07-29T13:57:32;29.10;99.90
13659;DHT22;6902;52.158;11.574;2022-07-29T14:00:01;29.00;99.90
13659;DHT22;6902;52.158;11.574;2022-07-29T14:02:34;28.90;99.90
13659;DHT22;6902;52.158;11.574;2022-07-29T14:05:01;28.90;99.90
13659;DHT22;6902;52.158;11.574;2022-07-29T14:07:28;29.00;99.90
13659;DHT22;6902;52.158;11.574;2022-07-29T14:09:58;28.90;99.90
13659;DHT22;6902;52.158;11.574;2022-07-29T14:12:25;28.90;99.90
13659;DHT22;6902;52.158;11.574;2022-07-29T14:14:52;28.90;99.90
13659;DHT22;6902;52.158;11.574;2022-07-29T14:17:21;28.80;99.90
13659;DHT22;6902;52.158;11.574;2022-07-29T14:19:48;28.70;99.90
13659;DHT22;6902;52.158;11.574;2022-07-29T14:22:15;28.70;99.90
13659;DHT22;6902;52.158;11.574;2022-07-29T14:24:44;28.70;99.90
13659;DHT22;6902;52.158;11.574;2022-07-29T14:27:11;28.70;99.90
13659;DHT22;6902;52.158;11.574;2022-07-29T14:29:38;28.80;99.90
13659;DHT22;6902;52.158;11.574;2022-07-29T14:32:06;28.70;99.90
13659;DHT22;6902;52.158;11.574;2022-07-29T14:34:35;28.70;99.90
13659;DHT22;6902;52.158;11.574;2022-07-29T14:37:03;28.70;99.90
13659;DHT22;6902;52.158;11.574;2022-07-29T14:39:31;28.70;99.90
13659;DHT22;6902;52.158;11.574;2022-07-29T14:41:58;28.70;99.90
13659;DHT22;6902;52.158;11.574;2022-07-29T14:44:25;28.70;99.90
13659;DHT22;6902;52.158;11.574;2022-07-29T14:46:56;28.70;99.90
13659;DHT22;6902;52.158;11.574;2022-07-29T14:49:25;28.70;99.90
13659;DHT22;6902;52.158;11.574;2022-07-29T14:51:53;28.70;99.90
13659;DHT22;6902;52.158;11.574;2022-07-29T14:54:20;28.70;99.90
13659;DHT22;6902;52.158;11.574;2022-07-29T14:56:51;28.80;99.90
13659;DHT22;6902;52.158;11.574;2022-07-29T14:59:22;28.80;99.90
13659;DHT22;6902;52.158;11.574;2022-07-29T15:01:49;28.80;99.90
13659;DHT22;6902;52.158;11.574;2022-07-29T15:04:16;28.80;99.90
13659;DHT22;6902;52.158;11.574;2022-07-29T15:06:43;28.80;99.90
13659;DHT22;6902;52.158;11.574;2022-07-29T15:09:11;28.80;99.90
13659;DHT22;6902;52.158;11.574;2022-07-29T15:11:39;28.80;99.90
13659;DHT22;6902;52.158;11.574;2022-07-29T15:14:05;28.70;99.90
13659;DHT22;6902;52.158;11.574;2022-07-29T15:16:35;28.80;99.90
13659;DHT22;6902;52.158;11.574;2022-07-29T15:19:01;28.90;99.90
13659;DHT22;6902;52.158;11.574;2022-07-29T15:21:29;29.00;99.90
13659;DHT22;6902;52.158;11.574;2022-07-29T15:23:56;29.00;99.90
13659;DHT22;6902;52.158;11.574;2022-07-29T15:26:25;29.10;99.90
13659;DHT22;6902;52.158;11.574;2022-07-29T15:28:52;29.10;99.90
13659;DHT22;6902;52.158;11.574;2022-07-29T15:31:21;29.20;99.90
13659;DHT22;6902;52.158;11.574;2022-07-29T15:33:48;29.10;99.90
13659;DHT22;6902;52.158;11.574;2022-07-29T15:36:15;29.10;99.90
13659;DHT22;6902;52.158;11.574;2022-07-29T15:38:42;29.10;99.90
13659;DHT22;6902;52.158;11.574;2022-07-29T15:41:13;29.10;99.90
13659;DHT22;6902;52.158;11.574;2022-07-29T15:43:43;29.10;99.90
13659;DHT22;6902;52.158;11.574;2022-07-29T15:46:13;29.00;99.90
13659;DHT22;6902;52.158;11.574;2022-07-29T15:48:58;29.00;99.90
13659;DHT22;6902;52.158;11.574;2022-07-29T15:51:25;29.00;99.90
13659;DHT22;6902;52.158;11.574;2022-07-29T15:53:52;29.00;99.90
13659;DHT22;6902;52.158;11.574;2022-07-29T15:56:19;29.00;99.90
13659;DHT22;6902;52.158;11.574;2022-07-29T15:58:48;28.90;99.90
13659;DHT22;6902;52.158;11.574;2022-07-29T16:01:16;28.80;99.90
13659;DHT22;6902;52.158;11.574;2022-07-29T16:03:43;28.80;99.90
13659;DHT22;6902;52.158;11.574;2022-07-29T16:06:10;28.80;99.90
13659;DHT22;6902;52.158;11.574;2022-07-29T16:08:37;28.70;99.90
13659;DHT22;6902;52.158;11.574;2022-07-29T16:11:04;28.70;99.90
13659;DHT22;6902;52.158;11.574;2022-07-29T16:13:31;28.70;99.90
13659;DHT22;6902;52.158;11.574;2022-07-29T16:16:00;28.70;99.90
13659;DHT22;6902;52.158;11.574;2022-07-29T16:18:27;28.70;99.90
13659;DHT22;6902;52.158;11.574;2022-07-29T16:20:55;28.60;99.90
13659;DHT22;6902;52.158;11.574;2022-07-29T16:23:22;28.60;99.90
13659;DHT22;6902;52.158;11.574;2022-07-29T16:25:49;28.60;99.90
13659;DHT22;6902;52.158;11.574;2022-07-29T16:28:16;28.60;99.90
13659;DHT22;6902;52.158;11.574;2022-07-29T16:30:43;28.60;99.90
13659;DHT22;6902;52.158;11.574;2022-07-29T16:33:12;28.60;99.90
13659;DHT22;6902;52.158;11.574;2022-07-29T16:35:39;28.50;99.90
13659;DHT22;6902;52.158;11.574;2022-07-29T16:38:06;28.50;99.90
13659;DHT22;6902;52.158;11.574;2022-07-29T16:40:34;28.40;99.90
13659;DHT22;6902;52.158;11.574;2022-07-29T16:43:01;28.40;99.90
13659;DHT22;6902;52.158;11.574;2022-07-29T16:45:27;28.40;99.90
13659;DHT22;6902;52.158;11.574;2022-07-29T16:47:55;28.40;99.90
13659;DHT22;6902;52.158;11.574;2022-07-29T16:50:25;28.40;99.90
13659;DHT22;6902;52.158;11.574;2022-07-29T16:52:52;28.30;99.90
13659;DHT22;6902;52.158;11.574;2022-07-29T16:55:19;28.40;99.90
13659;DHT22;6902;52.158;11.574;2022-07-29T16:57:46;28.40;99.90
13659;DHT22;6902;52.158;11.574;2022-07-29T17:00:15;28.30;99.90
13659;DHT22;6902;52.158;11.574;2022-07-29T17:02:42;28.30;99.90
13659;DHT22;6902;52.158;11.574;2022-07-29T17:05:10;28.30;99.90
13659;DHT22;6902;52.158;11.574;2022-07-29T17:07:39;28.20;99.90
13659;DHT22;6902;52.158;11.574;2022-07-29T17:10:07;28.20;99.90
13659;DHT22;6902;52.158;11.574;2022-07-29T17:12:34;28.20;99.90
13659;DHT22;6902;52.158;11.574;2022-07-29T17:15:02;28.20;99.90
13659;DHT22;6902;52.158;11.574;2022-07-29T17:17:30;28.20;99.90
13659;DHT22;6902;52.158;11.574;2022-07-29T17:19:57;28.20;99.90
13659;DHT22;6902;52.158;11.574;2022-07-29T17:22:24;28.10;99.90
13659;DHT22;6902;52.158;11.574;2022-07-29T17:24:54;28.10;99.90
13659;DHT22;6902;52.158;11.574;2022-07-29T17:27:20;28.10;99.90
13659;DHT22;6902;52.158;11.574;2022-07-29T17:29:48;28.10;99.90
13659;DHT22;6902;52.158;11.574;2022-07-29T17:32:15;28.10;99.90
13659;DHT22;6902;52.158;11.574;2022-07-29T17:34:42;28.00;99.90
13659;DHT22;6902;52.158;11.574;2022-07-29T17:37:11;27.90;99.90
13659;DHT22;6902;52.158;11.574;2022-07-29T17:39:40;27.80;99.90
13659;DHT22;6902;52.158;11.574;2022-07-29T17:42:10;27.80;99.90
13659;DHT22;6902;52.158;11.574;2022-07-29T17:44:38;27.70;99.90
13659;DHT22;6902;52.158;11.574;2022-07-29T17:47:05;27.70;99.90
13659;DHT22;6902;52.158;11.574;2022-07-29T17:49:33;27.60;99.90
13659;DHT22;6902;52.158;11.574;2022-07-29T17:52:00;27.60;99.90
13659;DHT22;6902;52.158;11.574;2022-07-29T17:54:29;27.50;99.90
13659;DHT22;6902;52.158;11.574;2022-07-29T17:56:56;27.50;99.90
13659;DHT22;6902;52.158;11.574;2022-07-29T17:59:24;27.50;99.90
13659;DHT22;6902;52.158;11.574;2022-07-29T18:01:52;27.50;99.90
13659;DHT22;6902;52.158;11.574;2022-07-29T18:04:19;27.40;99.90
13659;DHT22;6902;52.158;11.574;2022-07-29T18:06:47;27.40;99.90
13659;DHT22;6902;52.158;11.574;2022-07-29T18:09:15;27.40;99.90
13659;DHT22;6902;52.158;11.574;2022-07-29T18:11:42;27.40;99.90
13659;DHT22;6902;52.158;11.574;2022-07-29T18:14:09;27.30;99.90
13659;DHT22;6902;52.158;11.574;2022-07-29T18:16:37;27.30;99.90
13659;DHT22;6902;52.158;11.574;2022-07-29T18:19:05;27.30;99.90
13659;DHT22;6902;52.158;11.574;2022-07-29T18:21:32;27.20;99.90